sensor_id;sensor_type;location;lat;lon;timestamp;P1;durP1;ratioP1;P2;durP2;ratioP2
15273;SDS011;7738;49.532;11.156;2023-08-21T00:00:17;12.50;;;5.90;;
15273;SDS011;7738;49.532;11.156;2023-08-21T00:02:48;7.82;;;5.38;;
15273;SDS011;7738;49.532;11.156;2023-08-21T00:05:18;5.95;;;5.35;;
15273;SDS011;7738;49.532;11.156;2023-08-21T00:07:48;9.77;;;6.18;;
15273;SDS011;7738;49.532;11.156;2023-08-21T00:10:19;6.45;;;5.85;;
15273;SDS011;7738;49.532;11.156;2023-08-21T00:12:51;6.43;;;5.60;;
15273;SDS011;7738;49.532;11.156;2023-08-21T00:15:22;10.75;;;6.60;;
15273;SDS011;7738;49.532;11.156;2023-08-21T00:17:52;7.85;;;6.15;;
15273;SDS011;7738;49.532;11.156;2023-08-21T00:20:22;9.10;;;6.22;;
15273;SDS011;7738;49.532;11.156;2023-08-21T00:22:53;8.45;;;7.13;;
15273;SDS011;7738;49.532;11.156;2023-08-21T00:25:23;7.60;;;6.78;;
15273;SDS011;7738;49.532;11.156;2023-08-21T00:27:56;10.48;;;7.03;;
15273;SDS011;7738;49.532;11.156;2023-08-21T00:30:27;7.82;;;6.35;;
15273;SDS011;7738;49.532;11.156;2023-08-21T00:32:57;12.00;;;7.57;;
15273;SDS011;7738;49.532;11.156;2023-08-21T00:35:27;9.48;;;5.90;;
15273;SDS011;7738;49.532;11.156;2023-08-21T00:37:58;8.15;;;7.03;;
15273;SDS011;7738;49.532;11.156;2023-08-21T00:40:28;7.03;;;6.32;;
15273;SDS011;7738;49.532;11.156;2023-08-21T00:43:02;12.00;;;7.05;;
15273;SDS011;7738;49.532;11.156;2023-08-21T00:45:33;11.43;;;7.00;;
15273;SDS011;7738;49.532;11.156;2023-08-21T00:48:04;9.10;;;6.55;;
15273;SDS011;7738;49.532;11.156;2023-08-21T00:50:34;10.82;;;6.85;;
15273;SDS011;7738;49.532;11.156;2023-08-21T00:53:05;7.97;;;6.25;;
15273;SDS011;7738;49.532;11.156;2023-08-21T00:55:36;11.13;;;6.63;;
15273;SDS011;7738;49.532;11.156;2023-08-21T00:58:10;6.90;;;6.25;;
15273;SDS011;7738;49.532;11.156;2023-08-21T01:00:42;8.32;;;7.20;;
15273;SDS011;7738;49.532;11.156;2023-08-21T01:03:18;8.60;;;6.53;;
15273;SDS011;7738;49.532;11.156;2023-08-21T01:05:49;10.32;;;6.65;;
15273;SDS011;7738;49.532;11.156;2023-08-21T01:08:21;13.98;;;6.72;;
15273;SDS011;7738;49.532;11.156;2023-08-21T01:11:01;7.47;;;6.65;;
15273;SDS011;7738;49.532;11.156;2023-08-21T01:13:44;12.20;;;7.97;;
15273;SDS011;7738;49.532;11.156;2023-08-21T01:16:22;9.82;;;7.13;;
15273;SDS011;7738;49.532;11.156;2023-08-21T01:18:55;6.88;;;6.18;;
15273;SDS011;7738;49.532;11.156;2023-08-21T01:21:26;9.07;;;7.00;;
15273;SDS011;7738;49.532;11.156;2023-08-21T01:24:00;8.20;;;7.13;;
15273;SDS011;7738;49.532;11.156;2023-08-21T01:26:30;7.13;;;6.43;;
15273;SDS011;7738;49.532;11.156;2023-08-21T01:29:00;13.55;;;6.13;;
15273;SDS011;7738;49.532;11.156;2023-08-21T01:31:31;8.73;;;6.18;;
15273;SDS011;7738;49.532;11.156;2023-08-21T01:34:06;7.85;;;6.18;;
15273;SDS011;7738;49.532;11.156;2023-08-21T01:36:40;7.93;;;6.78;;
15273;SDS011;7738;49.532;11.156;2023-08-21T01:39:14;8.35;;;6.32;;
15273;SDS011;7738;49.532;11.156;2023-08-21T01:41:45;8.18;;;6.90;;
15273;SDS011;7738;49.532;11.156;2023-08-21T01:44:15;9.07;;;7.80;;
15273;SDS011;7738;49.532;11.156;2023-08-21T01:46:45;19.63;;;8.75;;
15273;SDS011;7738;49.532;11.156;2023-08-21T01:49:16;20.20;;;7.93;;
15273;SDS011;7738;49.532;11.156;2023-08-21T01:51:46;12.32;;;7.80;;
15273;SDS011;7738;49.532;11.156;2023-08-21T01:54:19;13.05;;;8.68;;
15273;SDS011;7738;49.532;11.156;2023-08-21T01:56:50;10.93;;;8.07;;
15273;SDS011;7738;49.532;11.156;2023-08-21T01:59:21;13.68;;;8.10;;
15273;SDS011;7738;49.532;11.156;2023-08-21T02:01:52;12.13;;;7.97;;
15273;SDS011;7738;49.532;11.156;2023-08-21T02:04:22;10.15;;;8.52;;
15273;SDS011;7738;49.532;11.156;2023-08-21T02:06:52;8.77;;;7.30;;
15273;SDS011;7738;49.532;11.156;2023-08-21T02:09:25;10.73;;;8.55;;
15273;SDS011;7738;49.532;11.156;2023-08-21T02:11:56;9.90;;;7.90;;
15273;SDS011;7738;49.532;11.156;2023-08-21T02:14:26;10.65;;;8.15;;
15273;SDS011;7738;49.532;11.156;2023-08-21T02:16:56;11.55;;;8.38;;
15273;SDS011;7738;49.532;11.156;2023-08-21T02:19:26;12.02;;;8.50;;
15273;SDS011;7738;49.532;11.156;2023-08-21T02:21:57;9.77;;;8.13;;
15273;SDS011;7738;49.532;11.156;2023-08-21T02:24:30;15.35;;;9.18;;
15273;SDS011;7738;49.532;11.156;2023-08-21T02:27:00;9.50;;;7.72;;
15273;SDS011;7738;49.532;11.156;2023-08-21T02:29:30;9.38;;;8.23;;
15273;SDS011;7738;49.532;11.156;2023-08-21T02:32:02;9.02;;;8.15;;
15273;SDS011;7738;49.532;11.156;2023-08-21T02:34:32;10.02;;;8.60;;
15273;SDS011;7738;49.532;11.156;2023-08-21T02:37:03;13.27;;;9.98;;
15273;SDS011;7738;49.532;11.156;2023-08-21T02:39:36;11.20;;;8.75;;
15273;SDS011;7738;49.532;11.156;2023-08-21T02:42:06;12.70;;;9.25;;
15273;SDS011;7738;49.532;11.156;2023-08-21T02:44:36;16.42;;;8.77;;
15273;SDS011;7738;49.532;11.156;2023-08-21T02:47:07;10.48;;;7.75;;
15273;SDS011;7738;49.532;11.156;2023-08-21T02:49:37;12.75;;;9.15;;
15273;SDS011;7738;49.532;11.156;2023-08-21T02:52:08;10.88;;;8.18;;
15273;SDS011;7738;49.532;11.156;2023-08-21T02:54:41;12.85;;;8.45;;
15273;SDS011;7738;49.532;11.156;2023-08-21T02:57:11;10.00;;;8.73;;
15273;SDS011;7738;49.532;11.156;2023-08-21T02:59:41;10.43;;;8.60;;
15273;SDS011;7738;49.532;11.156;2023-08-21T03:02:12;10.95;;;8.55;;
15273;SDS011;7738;49.532;11.156;2023-08-21T03:04:42;10.27;;;9.07;;
15273;SDS011;7738;49.532;11.156;2023-08-21T03:07:12;11.05;;;9.00;;
15273;SDS011;7738;49.532;11.156;2023-08-21T03:09:45;9.93;;;8.85;;
15273;SDS011;7738;49.532;11.156;2023-08-21T03:12:16;12.30;;;8.60;;
15273;SDS011;7738;49.532;11.156;2023-08-21T03:14:47;10.52;;;8.45;;
15273;SDS011;7738;49.532;11.156;2023-08-21T03:17:17;11.40;;;9.40;;
15273;SDS011;7738;49.532;11.156;2023-08-21T03:19:47;10.88;;;9.32;;
15273;SDS011;7738;49.532;11.156;2023-08-21T03:22:18;10.63;;;8.43;;
15273;SDS011;7738;49.532;11.156;2023-08-21T03:24:51;9.82;;;8.50;;
15273;SDS011;7738;49.532;11.156;2023-08-21T03:27:21;10.65;;;8.63;;
15273;SDS011;7738;49.532;11.156;2023-08-21T03:29:51;9.55;;;8.38;;
15273;SDS011;7738;49.532;11.156;2023-08-21T03:32:22;8.43;;;7.63;;
15273;SDS011;7738;49.532;11.156;2023-08-21T03:34:52;13.32;;;8.52;;
15273;SDS011;7738;49.532;11.156;2023-08-21T03:37:23;9.35;;;7.70;;
15273;SDS011;7738;49.532;11.156;2023-08-21T03:39:56;10.07;;;8.95;;
15273;SDS011;7738;49.532;11.156;2023-08-21T03:44:58;9.38;;;7.93;;
15273;SDS011;7738;49.532;11.156;2023-08-21T03:47:30;10.48;;;9.05;;
15273;SDS011;7738;49.532;11.156;2023-08-21T03:50:07;10.77;;;8.20;;
15273;SDS011;7738;49.532;11.156;2023-08-21T03:52:38;10.48;;;7.78;;
15273;SDS011;7738;49.532;11.156;2023-08-21T03:55:10;12.50;;;7.85;;
15273;SDS011;7738;49.532;11.156;2023-08-21T03:57:42;9.00;;;8.10;;
15273;SDS011;7738;49.532;11.156;2023-08-21T04:00:12;8.82;;;7.85;;
15273;SDS011;7738;49.532;11.156;2023-08-21T04:02:45;9.77;;;8.77;;
15273;SDS011;7738;49.532;11.156;2023-08-21T04:05:15;9.13;;;8.20;;
15273;SDS011;7738;49.532;11.156;2023-08-21T04:07:46;12.18;;;8.60;;
15273;SDS011;7738;49.532;11.156;2023-08-21T04:10:19;14.05;;;7.95;;
15273;SDS011;7738;49.532;11.156;2023-08-21T04:12:49;8.40;;;7.55;;
15273;SDS011;7738;49.532;11.156;2023-08-21T04:15:19;10.95;;;8.90;;
15273;SDS011;7738;49.532;11.156;2023-08-21T04:17:49;10.45;;;8.25;;
15273;SDS011;7738;49.532;11.156;2023-08-21T04:20:20;9.18;;;8.02;;
15273;SDS011;7738;49.532;11.156;2023-08-21T04:22:50;12.88;;;7.95;;
15273;SDS011;7738;49.532;11.156;2023-08-21T04:25:23;11.68;;;9.05;;
15273;SDS011;7738;49.532;11.156;2023-08-21T04:27:53;9.88;;;7.63;;
15273;SDS011;7738;49.532;11.156;2023-08-21T04:30:24;9.80;;;8.05;;
15273;SDS011;7738;49.532;11.156;2023-08-21T04:32:54;10.70;;;9.57;;
15273;SDS011;7738;49.532;11.156;2023-08-21T04:35:25;10.82;;;7.97;;
15273;SDS011;7738;49.532;11.156;2023-08-21T04:37:55;10.23;;;8.50;;
15273;SDS011;7738;49.532;11.156;2023-08-21T04:40:28;12.93;;;8.32;;
15273;SDS011;7738;49.532;11.156;2023-08-21T04:43:00;11.27;;;8.65;;
15273;SDS011;7738;49.532;11.156;2023-08-21T04:45:30;11.20;;;9.60;;
15273;SDS011;7738;49.532;11.156;2023-08-21T04:48:00;10.43;;;9.35;;
15273;SDS011;7738;49.532;11.156;2023-08-21T04:50:31;11.63;;;8.57;;
15273;SDS011;7738;49.532;11.156;2023-08-21T04:53:02;10.13;;;8.38;;
15273;SDS011;7738;49.532;11.156;2023-08-21T04:55:35;8.90;;;7.95;;
15273;SDS011;7738;49.532;11.156;2023-08-21T04:58:07;10.23;;;8.00;;
15273;SDS011;7738;49.532;11.156;2023-08-21T05:00:39;10.50;;;7.70;;
15273;SDS011;7738;49.532;11.156;2023-08-21T05:03:10;10.65;;;7.95;;
15273;SDS011;7738;49.532;11.156;2023-08-21T05:05:51;17.10;;;8.05;;
15273;SDS011;7738;49.532;11.156;2023-08-21T05:08:23;11.50;;;7.90;;
15273;SDS011;7738;49.532;11.156;2023-08-21T05:10:58;10.48;;;8.43;;
15273;SDS011;7738;49.532;11.156;2023-08-21T05:13:32;12.63;;;9.35;;
15273;SDS011;7738;49.532;11.156;2023-08-21T05:16:05;12.25;;;9.40;;
15273;SDS011;7738;49.532;11.156;2023-08-21T05:18:37;13.25;;;10.68;;
15273;SDS011;7738;49.532;11.156;2023-08-21T05:21:08;15.45;;;10.95;;
15273;SDS011;7738;49.532;11.156;2023-08-21T05:23:39;13.73;;;11.02;;
15273;SDS011;7738;49.532;11.156;2023-08-21T05:26:12;13.23;;;10.10;;
15273;SDS011;7738;49.532;11.156;2023-08-21T05:28:42;12.98;;;10.65;;
15273;SDS011;7738;49.532;11.156;2023-08-21T05:31:13;13.15;;;11.25;;
15273;SDS011;7738;49.532;11.156;2023-08-21T05:33:52;15.85;;;11.23;;
15273;SDS011;7738;49.532;11.156;2023-08-21T05:36:23;13.05;;;9.98;;
15273;SDS011;7738;49.532;11.156;2023-08-21T05:38:53;13.25;;;11.02;;
15273;SDS011;7738;49.532;11.156;2023-08-21T05:41:30;12.45;;;10.57;;
15273;SDS011;7738;49.532;11.156;2023-08-21T05:44:01;11.68;;;10.32;;
15273;SDS011;7738;49.532;11.156;2023-08-21T05:46:31;11.93;;;10.48;;
15273;SDS011;7738;49.532;11.156;2023-08-21T05:49:02;12.32;;;9.77;;
15273;SDS011;7738;49.532;11.156;2023-08-21T05:51:32;13.80;;;9.75;;
15273;SDS011;7738;49.532;11.156;2023-08-21T05:54:03;12.82;;;9.57;;
15273;SDS011;7738;49.532;11.156;2023-08-21T05:56:36;10.82;;;9.73;;
15273;SDS011;7738;49.532;11.156;2023-08-21T05:59:09;10.73;;;9.60;;
15273;SDS011;7738;49.532;11.156;2023-08-21T06:01:40;15.30;;;10.35;;
15273;SDS011;7738;49.532;11.156;2023-08-21T06:04:11;14.15;;;9.90;;
15273;SDS011;7738;49.532;11.156;2023-08-21T06:06:50;14.10;;;9.73;;
15273;SDS011;7738;49.532;11.156;2023-08-21T06:09:20;13.90;;;10.35;;
15273;SDS011;7738;49.532;11.156;2023-08-21T06:11:53;13.73;;;10.98;;
15273;SDS011;7738;49.532;11.156;2023-08-21T06:14:23;12.52;;;11.23;;
15273;SDS011;7738;49.532;11.156;2023-08-21T06:16:59;11.73;;;10.20;;
15273;SDS011;7738;49.532;11.156;2023-08-21T06:19:32;12.00;;;10.63;;
15273;SDS011;7738;49.532;11.156;2023-08-21T06:22:02;13.32;;;10.85;;
15273;SDS011;7738;49.532;11.156;2023-08-21T06:24:34;14.05;;;10.95;;
15273;SDS011;7738;49.532;11.156;2023-08-21T06:27:11;15.18;;;11.88;;
15273;SDS011;7738;49.532;11.156;2023-08-21T06:29:41;14.63;;;9.98;;
15273;SDS011;7738;49.532;11.156;2023-08-21T06:32:11;14.40;;;11.18;;
15273;SDS011;7738;49.532;11.156;2023-08-21T06:34:44;10.90;;;9.48;;
15273;SDS011;7738;49.532;11.156;2023-08-21T06:37:14;12.38;;;11.07;;
15273;SDS011;7738;49.532;11.156;2023-08-21T06:39:45;11.90;;;10.43;;
15273;SDS011;7738;49.532;11.156;2023-08-21T06:42:18;14.95;;;11.65;;
15273;SDS011;7738;49.532;11.156;2023-08-21T06:44:50;13.50;;;11.00;;
15273;SDS011;7738;49.532;11.156;2023-08-21T06:47:20;13.68;;;10.90;;
15273;SDS011;7738;49.532;11.156;2023-08-21T06:49:50;15.45;;;10.23;;
15273;SDS011;7738;49.532;11.156;2023-08-21T06:52:21;13.63;;;10.35;;
15273;SDS011;7738;49.532;11.156;2023-08-21T06:54:51;13.98;;;11.27;;
15273;SDS011;7738;49.532;11.156;2023-08-21T06:57:24;11.55;;;10.45;;
15273;SDS011;7738;49.532;11.156;2023-08-21T06:59:54;21.52;;;12.43;;
15273;SDS011;7738;49.532;11.156;2023-08-21T07:02:24;12.63;;;11.27;;
15273;SDS011;7738;49.532;11.156;2023-08-21T07:04:57;14.13;;;10.67;;
15273;SDS011;7738;49.532;11.156;2023-08-21T07:07:27;13.50;;;11.65;;
15273;SDS011;7738;49.532;11.156;2023-08-21T07:09:57;20.60;;;12.32;;
15273;SDS011;7738;49.532;11.156;2023-08-21T07:12:30;15.20;;;12.57;;
15273;SDS011;7738;49.532;11.156;2023-08-21T07:15:01;13.95;;;10.30;;
15273;SDS011;7738;49.532;11.156;2023-08-21T07:17:31;15.23;;;10.82;;
15273;SDS011;7738;49.532;11.156;2023-08-21T07:20:01;12.00;;;10.75;;
15273;SDS011;7738;49.532;11.156;2023-08-21T07:22:32;15.25;;;12.05;;
15273;SDS011;7738;49.532;11.156;2023-08-21T07:25:04;12.90;;;10.82;;
15273;SDS011;7738;49.532;11.156;2023-08-21T07:27:37;17.75;;;11.68;;
15273;SDS011;7738;49.532;11.156;2023-08-21T07:30:08;15.77;;;11.30;;
15273;SDS011;7738;49.532;11.156;2023-08-21T07:32:38;14.30;;;12.18;;
15273;SDS011;7738;49.532;11.156;2023-08-21T07:35:09;14.68;;;11.45;;
15273;SDS011;7738;49.532;11.156;2023-08-21T07:37:39;11.20;;;9.35;;
15273;SDS011;7738;49.532;11.156;2023-08-21T07:40:12;12.07;;;10.40;;
15273;SDS011;7738;49.532;11.156;2023-08-21T07:42:45;20.77;;;10.85;;
15273;SDS011;7738;49.532;11.156;2023-08-21T07:45:15;13.05;;;9.88;;
15273;SDS011;7738;49.532;11.156;2023-08-21T07:47:45;13.88;;;10.30;;
15273;SDS011;7738;49.532;11.156;2023-08-21T07:50:34;12.68;;;10.77;;
15273;SDS011;7738;49.532;11.156;2023-08-21T07:53:04;12.63;;;10.43;;
15273;SDS011;7738;49.532;11.156;2023-08-21T07:55:35;13.38;;;9.88;;
15273;SDS011;7738;49.532;11.156;2023-08-21T07:58:07;12.10;;;10.50;;
15273;SDS011;7738;49.532;11.156;2023-08-21T08:00:38;16.40;;;10.65;;
15273;SDS011;7738;49.532;11.156;2023-08-21T08:03:09;12.15;;;10.85;;
15273;SDS011;7738;49.532;11.156;2023-08-21T08:05:41;11.95;;;9.65;;
15273;SDS011;7738;49.532;11.156;2023-08-21T08:08:21;13.55;;;10.48;;
15273;SDS011;7738;49.532;11.156;2023-08-21T08:10:52;12.75;;;10.75;;
15273;SDS011;7738;49.532;11.156;2023-08-21T08:13:25;12.63;;;10.35;;
15273;SDS011;7738;49.532;11.156;2023-08-21T08:15:55;15.27;;;10.30;;
15273;SDS011;7738;49.532;11.156;2023-08-21T08:18:25;10.85;;;9.50;;
15273;SDS011;7738;49.532;11.156;2023-08-21T08:20:56;11.35;;;9.68;;
15273;SDS011;7738;49.532;11.156;2023-08-21T08:23:26;19.92;;;9.82;;
15273;SDS011;7738;49.532;11.156;2023-08-21T08:25:57;10.52;;;9.43;;
15273;SDS011;7738;49.532;11.156;2023-08-21T08:28:29;12.07;;;8.88;;
15273;SDS011;7738;49.532;11.156;2023-08-21T08:31:00;11.07;;;9.18;;
15273;SDS011;7738;49.532;11.156;2023-08-21T08:33:30;11.70;;;8.93;;
15273;SDS011;7738;49.532;11.156;2023-08-21T08:36:00;12.93;;;9.05;;
15273;SDS011;7738;49.532;11.156;2023-08-21T08:38:31;9.57;;;8.43;;
15273;SDS011;7738;49.532;11.156;2023-08-21T08:41:01;10.25;;;9.00;;
15273;SDS011;7738;49.532;11.156;2023-08-21T08:43:38;11.52;;;8.27;;
15273;SDS011;7738;49.532;11.156;2023-08-21T08:46:10;8.60;;;7.70;;
15273;SDS011;7738;49.532;11.156;2023-08-21T08:48:41;9.27;;;7.55;;
15273;SDS011;7738;49.532;11.156;2023-08-21T08:51:11;8.73;;;7.82;;
15273;SDS011;7738;49.532;11.156;2023-08-21T08:53:41;10.63;;;8.45;;
15273;SDS011;7738;49.532;11.156;2023-08-21T08:56:12;10.95;;;7.95;;
15273;SDS011;7738;49.532;11.156;2023-08-21T08:58:45;10.98;;;7.72;;
15273;SDS011;7738;49.532;11.156;2023-08-21T09:01:16;9.82;;;8.15;;
15273;SDS011;7738;49.532;11.156;2023-08-21T09:03:46;8.82;;;7.95;;
15273;SDS011;7738;49.532;11.156;2023-08-21T09:06:17;10.85;;;8.38;;
15273;SDS011;7738;49.532;11.156;2023-08-21T09:08:53;11.13;;;8.25;;
15273;SDS011;7738;49.532;11.156;2023-08-21T09:11:23;10.68;;;7.80;;
15273;SDS011;7738;49.532;11.156;2023-08-21T09:13:56;9.68;;;7.43;;
15273;SDS011;7738;49.532;11.156;2023-08-21T09:16:27;9.27;;;7.78;;
15273;SDS011;7738;49.532;11.156;2023-08-21T09:18:58;8.98;;;7.45;;
15273;SDS011;7738;49.532;11.156;2023-08-21T09:21:28;9.52;;;7.88;;
15273;SDS011;7738;49.532;11.156;2023-08-21T09:23:59;14.10;;;7.18;;
15273;SDS011;7738;49.532;11.156;2023-08-21T09:26:31;8.20;;;6.53;;
15273;SDS011;7738;49.532;11.156;2023-08-21T09:29:04;9.30;;;7.30;;
15273;SDS011;7738;49.532;11.156;2023-08-21T09:31:36;7.93;;;7.18;;
15273;SDS011;7738;49.532;11.156;2023-08-21T09:34:06;11.52;;;7.45;;
15273;SDS011;7738;49.532;11.156;2023-08-21T09:36:37;9.98;;;7.10;;
15273;SDS011;7738;49.532;11.156;2023-08-21T09:39:10;10.85;;;7.18;;
15273;SDS011;7738;49.532;11.156;2023-08-21T09:41:54;9.80;;;6.40;;
15273;SDS011;7738;49.532;11.156;2023-08-21T09:44:27;7.38;;;5.63;;
15273;SDS011;7738;49.532;11.156;2023-08-21T09:46:57;11.48;;;6.38;;
15273;SDS011;7738;49.532;11.156;2023-08-21T09:49:28;7.40;;;5.60;;
15273;SDS011;7738;49.532;11.156;2023-08-21T09:51:58;11.70;;;5.07;;
15273;SDS011;7738;49.532;11.156;2023-08-21T09:54:30;7.70;;;5.40;;
15273;SDS011;7738;49.532;11.156;2023-08-21T09:57:12;7.90;;;5.28;;
15273;SDS011;7738;49.532;11.156;2023-08-21T09:59:47;7.93;;;5.22;;
15273;SDS011;7738;49.532;11.156;2023-08-21T10:02:20;8.48;;;5.50;;
15273;SDS011;7738;49.532;11.156;2023-08-21T10:04:52;5.05;;;4.22;;
15273;SDS011;7738;49.532;11.156;2023-08-21T10:07:23;7.15;;;5.30;;
15273;SDS011;7738;49.532;11.156;2023-08-21T10:09:57;6.93;;;4.85;;
15273;SDS011;7738;49.532;11.156;2023-08-21T10:12:28;5.53;;;5.03;;
15273;SDS011;7738;49.532;11.156;2023-08-21T10:15:01;14.13;;;4.43;;
15273;SDS011;7738;49.532;11.156;2023-08-21T10:20:02;10.13;;;4.82;;
15273;SDS011;7738;49.532;11.156;2023-08-21T10:22:38;7.25;;;4.38;;
15273;SDS011;7738;49.532;11.156;2023-08-21T10:25:14;8.13;;;4.03;;
15273;SDS011;7738;49.532;11.156;2023-08-21T10:27:48;4.57;;;3.75;;
15273;SDS011;7738;49.532;11.156;2023-08-21T10:30:23;7.35;;;4.30;;
15273;SDS011;7738;49.532;11.156;2023-08-21T10:32:55;6.38;;;4.20;;
15273;SDS011;7738;49.532;11.156;2023-08-21T10:35:28;7.20;;;4.07;;
15273;SDS011;7738;49.532;11.156;2023-08-21T10:38:07;7.78;;;4.80;;
15273;SDS011;7738;49.532;11.156;2023-08-21T10:40:40;4.95;;;3.55;;
15273;SDS011;7738;49.532;11.156;2023-08-21T10:43:36;8.68;;;4.43;;
15273;SDS011;7738;49.532;11.156;2023-08-21T10:46:09;6.20;;;4.63;;
15273;SDS011;7738;49.532;11.156;2023-08-21T10:48:42;9.70;;;4.50;;
15273;SDS011;7738;49.532;11.156;2023-08-21T10:51:12;5.88;;;3.88;;
15273;SDS011;7738;49.532;11.156;2023-08-21T10:53:43;6.75;;;4.28;;
15273;SDS011;7738;49.532;11.156;2023-08-21T10:56:15;7.17;;;4.07;;
15273;SDS011;7738;49.532;11.156;2023-08-21T10:58:45;8.15;;;4.10;;
15273;SDS011;7738;49.532;11.156;2023-08-21T11:02:01;6.00;;;3.55;;
15273;SDS011;7738;49.532;11.156;2023-08-21T11:04:39;6.75;;;3.67;;
15273;SDS011;7738;49.532;11.156;2023-08-21T11:07:11;6.80;;;4.50;;
15273;SDS011;7738;49.532;11.156;2023-08-21T11:09:42;7.28;;;3.58;;
15273;SDS011;7738;49.532;11.156;2023-08-21T11:12:13;5.93;;;3.45;;
15273;SDS011;7738;49.532;11.156;2023-08-21T11:14:44;16.60;;;4.63;;
15273;SDS011;7738;49.532;11.156;2023-08-21T11:17:17;6.78;;;2.92;;
15273;SDS011;7738;49.532;11.156;2023-08-21T11:19:50;6.30;;;3.17;;
15273;SDS011;7738;49.532;11.156;2023-08-21T11:22:20;9.52;;;3.17;;
15273;SDS011;7738;49.532;11.156;2023-08-21T11:24:57;3.80;;;2.55;;
15273;SDS011;7738;49.532;11.156;2023-08-21T11:27:27;3.55;;;2.33;;
15273;SDS011;7738;49.532;11.156;2023-08-21T11:29:58;4.22;;;2.92;;
15273;SDS011;7738;49.532;11.156;2023-08-21T11:32:32;3.67;;;2.97;;
15273;SDS011;7738;49.532;11.156;2023-08-21T11:35:06;4.88;;;2.65;;
15273;SDS011;7738;49.532;11.156;2023-08-21T11:37:42;5.03;;;2.47;;
15273;SDS011;7738;49.532;11.156;2023-08-21T11:40:14;4.72;;;2.97;;
15273;SDS011;7738;49.532;11.156;2023-08-21T11:42:44;4.18;;;2.90;;
15273;SDS011;7738;49.532;11.156;2023-08-21T11:45:14;8.13;;;3.03;;
15273;SDS011;7738;49.532;11.156;2023-08-21T11:47:47;8.45;;;2.88;;
15273;SDS011;7738;49.532;11.156;2023-08-21T11:50:17;4.63;;;3.25;;
15273;SDS011;7738;49.532;11.156;2023-08-21T11:52:48;4.03;;;3.20;;
15273;SDS011;7738;49.532;11.156;2023-08-21T11:55:21;6.22;;;3.40;;
15273;SDS011;7738;49.532;11.156;2023-08-21T11:57:52;8.52;;;3.47;;
15273;SDS011;7738;49.532;11.156;2023-08-21T12:00:26;6.10;;;3.28;;
15273;SDS011;7738;49.532;11.156;2023-08-21T12:03:00;4.93;;;2.97;;
15273;SDS011;7738;49.532;11.156;2023-08-21T12:05:33;6.20;;;3.95;;
15273;SDS011;7738;49.532;11.156;2023-08-21T12:08:03;6.05;;;3.15;;
15273;SDS011;7738;49.532;11.156;2023-08-21T12:10:34;5.57;;;3.00;;
15273;SDS011;7738;49.532;11.156;2023-08-21T12:13:07;5.82;;;3.30;;
15273;SDS011;7738;49.532;11.156;2023-08-21T12:15:37;6.43;;;3.05;;
15273;SDS011;7738;49.532;11.156;2023-08-21T12:18:10;5.22;;;2.88;;
15273;SDS011;7738;49.532;11.156;2023-08-21T12:20:40;4.30;;;2.80;;
15273;SDS011;7738;49.532;11.156;2023-08-21T12:23:10;6.40;;;3.28;;
15273;SDS011;7738;49.532;11.156;2023-08-21T12:25:40;4.85;;;2.85;;
15273;SDS011;7738;49.532;11.156;2023-08-21T12:28:11;4.55;;;2.70;;
15273;SDS011;7738;49.532;11.156;2023-08-21T12:30:41;8.70;;;2.83;;
15273;SDS011;7738;49.532;11.156;2023-08-21T12:33:16;3.58;;;3.00;;
15273;SDS011;7738;49.532;11.156;2023-08-21T12:35:50;6.82;;;3.13;;
15273;SDS011;7738;49.532;11.156;2023-08-21T12:38:20;5.90;;;3.50;;
15273;SDS011;7738;49.532;11.156;2023-08-21T12:40:56;6.22;;;3.03;;
15273;SDS011;7738;49.532;11.156;2023-08-21T12:43:26;11.27;;;3.45;;
15273;SDS011;7738;49.532;11.156;2023-08-21T12:45:56;6.65;;;3.30;;
15273;SDS011;7738;49.532;11.156;2023-08-21T12:48:29;6.97;;;3.30;;
15273;SDS011;7738;49.532;11.156;2023-08-21T12:53:29;5.25;;;3.50;;
15273;SDS011;7738;49.532;11.156;2023-08-21T12:55:59;7.95;;;3.63;;
15273;SDS011;7738;49.532;11.156;2023-08-21T12:58:30;5.85;;;3.35;;
15273;SDS011;7738;49.532;11.156;2023-08-21T13:01:00;9.57;;;4.30;;
15273;SDS011;7738;49.532;11.156;2023-08-21T13:03:35;8.35;;;3.60;;
15273;SDS011;7738;49.532;11.156;2023-08-21T13:06:05;6.47;;;3.45;;
15273;SDS011;7738;49.532;11.156;2023-08-21T13:08:35;9.93;;;3.53;;
15273;SDS011;7738;49.532;11.156;2023-08-21T13:11:05;5.20;;;3.75;;
15273;SDS011;7738;49.532;11.156;2023-08-21T13:13:36;4.88;;;3.22;;
15273;SDS011;7738;49.532;11.156;2023-08-21T13:16:07;5.93;;;2.97;;
15273;SDS011;7738;49.532;11.156;2023-08-21T13:18:40;5.97;;;3.83;;
15273;SDS011;7738;49.532;11.156;2023-08-21T13:23:40;7.10;;;3.40;;
15273;SDS011;7738;49.532;11.156;2023-08-21T13:26:10;6.85;;;3.65;;
15273;SDS011;7738;49.532;11.156;2023-08-21T13:28:40;6.95;;;3.60;;
15273;SDS011;7738;49.532;11.156;2023-08-21T13:31:10;4.63;;;3.28;;
15273;SDS011;7738;49.532;11.156;2023-08-21T13:33:47;4.00;;;3.15;;
15273;SDS011;7738;49.532;11.156;2023-08-21T13:36:17;6.28;;;2.80;;
15273;SDS011;7738;49.532;11.156;2023-08-21T13:38:51;6.22;;;3.47;;
15273;SDS011;7738;49.532;11.156;2023-08-21T13:41:21;4.53;;;2.53;;
15273;SDS011;7738;49.532;11.156;2023-08-21T13:43:51;6.88;;;3.30;;
15273;SDS011;7738;49.532;11.156;2023-08-21T13:46:25;3.20;;;2.58;;
15273;SDS011;7738;49.532;11.156;2023-08-21T13:48:58;3.55;;;2.92;;
15273;SDS011;7738;49.532;11.156;2023-08-21T13:53:58;7.25;;;3.13;;
15273;SDS011;7738;49.532;11.156;2023-08-21T13:56:29;3.67;;;2.50;;
15273;SDS011;7738;49.532;11.156;2023-08-21T13:58:59;3.05;;;2.13;;
15273;SDS011;7738;49.532;11.156;2023-08-21T14:01:29;6.60;;;2.50;;
15273;SDS011;7738;49.532;11.156;2023-08-21T14:04:02;4.63;;;2.80;;
15273;SDS011;7738;49.532;11.156;2023-08-21T14:06:32;3.67;;;2.30;;
15273;SDS011;7738;49.532;11.156;2023-08-21T14:09:03;5.38;;;3.08;;
15273;SDS011;7738;49.532;11.156;2023-08-21T14:11:33;5.03;;;2.30;;
15273;SDS011;7738;49.532;11.156;2023-08-21T14:14:04;5.45;;;2.72;;
15273;SDS011;7738;49.532;11.156;2023-08-21T14:16:34;3.22;;;2.00;;
15273;SDS011;7738;49.532;11.156;2023-08-21T14:19:07;2.63;;;2.42;;
15273;SDS011;7738;49.532;11.156;2023-08-21T14:24:07;4.82;;;2.40;;
15273;SDS011;7738;49.532;11.156;2023-08-21T14:26:37;3.15;;;2.30;;
15273;SDS011;7738;49.532;11.156;2023-08-21T14:29:08;2.85;;;2.10;;
15273;SDS011;7738;49.532;11.156;2023-08-21T14:31:39;3.72;;;2.03;;
15273;SDS011;7738;49.532;11.156;2023-08-21T14:34:11;6.68;;;2.40;;
15273;SDS011;7738;49.532;11.156;2023-08-21T14:36:42;4.10;;;2.67;;
15273;SDS011;7738;49.532;11.156;2023-08-21T14:39:12;4.55;;;2.00;;
15273;SDS011;7738;49.532;11.156;2023-08-21T14:41:43;8.13;;;2.10;;
15273;SDS011;7738;49.532;11.156;2023-08-21T14:44:13;7.32;;;2.13;;
15273;SDS011;7738;49.532;11.156;2023-08-21T14:46:43;3.95;;;2.35;;
15273;SDS011;7738;49.532;11.156;2023-08-21T14:49:16;2.70;;;1.85;;
15273;SDS011;7738;49.532;11.156;2023-08-21T14:51:46;4.68;;;2.35;;
15273;SDS011;7738;49.532;11.156;2023-08-21T14:54:17;3.30;;;1.63;;
15273;SDS011;7738;49.532;11.156;2023-08-21T14:56:47;4.20;;;2.15;;
15273;SDS011;7738;49.532;11.156;2023-08-21T14:59:17;3.15;;;2.10;;
15273;SDS011;7738;49.532;11.156;2023-08-21T15:01:48;6.57;;;2.17;;
15273;SDS011;7738;49.532;11.156;2023-08-21T15:04:21;5.13;;;2.22;;
15273;SDS011;7738;49.532;11.156;2023-08-21T15:06:51;4.28;;;2.00;;
15273;SDS011;7738;49.532;11.156;2023-08-21T15:09:21;5.30;;;2.45;;
15273;SDS011;7738;49.532;11.156;2023-08-21T15:11:51;3.20;;;2.00;;
15273;SDS011;7738;49.532;11.156;2023-08-21T15:14:21;5.63;;;2.15;;
15273;SDS011;7738;49.532;11.156;2023-08-21T15:16:52;4.15;;;2.00;;
15273;SDS011;7738;49.532;11.156;2023-08-21T15:19:45;4.82;;;2.05;;